Willet, New York
Current Conditions -  °F | °C
As of 11:15 PM on Thursday 27 Nov 2014 (Local Time) from KN03 Reporting Station
Overcast Overcast  
Wind Chill: 27°   Ceiling: 2700
Heat Index: 27°   Visibility: 10mi
Dew Point: 27°   Wind: 0mph
Humidity: 100%   Direction: NA
Pressure: 30.05"   Gusts: NA
Location:  42.47°N, 75.91°W
Report Text: KN03 280415Z AUTO 00000KT 10SM BKN027 OVC110 M03/M03 A3005 RMK AO2
Loading
Personal Weather Stations






























Interactive Weather Map New forecast layout! Learn more

10-Day Weather Forecast

Advertisements
Track Severe Weather on mobile